sensor_id;sensor_type;location;lat;lon;timestamp;temperature;humidity
41547;DHT22;27271;45.412;10.852;2023-05-14T00:01:46;11.50;99.90
41547;DHT22;27271;45.412;10.852;2023-05-14T00:05:09;11.50;99.90
41547;DHT22;27271;45.412;10.852;2023-05-14T00:08:31;11.50;99.90
41547;DHT22;27271;45.412;10.852;2023-05-14T00:11:53;11.50;99.90
41547;DHT22;27271;45.412;10.852;2023-05-14T00:15:15;11.50;99.90
41547;DHT22;27271;45.412;10.852;2023-05-14T00:18:37;11.60;99.90
41547;DHT22;27271;45.412;10.852;2023-05-14T00:21:59;11.60;99.90
41547;DHT22;27271;45.412;10.852;2023-05-14T00:25:21;11.70;99.90
41547;DHT22;27271;45.412;10.852;2023-05-14T00:28:43;11.70;99.90
41547;DHT22;27271;45.412;10.852;2023-05-14T00:32:05;11.70;99.90
41547;DHT22;27271;45.412;10.852;2023-05-14T00:35:27;11.70;99.90
41547;DHT22;27271;45.412;10.852;2023-05-14T00:38:49;11.70;99.90
41547;DHT22;27271;45.412;10.852;2023-05-14T00:42:12;11.70;99.90
41547;DHT22;27271;45.412;10.852;2023-05-14T00:45:34;11.80;99.90
41547;DHT22;27271;45.412;10.852;2023-05-14T00:48:57;11.80;99.90
41547;DHT22;27271;45.412;10.852;2023-05-14T00:52:19;11.80;99.90
41547;DHT22;27271;45.412;10.852;2023-05-14T00:55:41;11.80;99.90
41547;DHT22;27271;45.412;10.852;2023-05-14T00:59:04;11.80;99.90
41547;DHT22;27271;45.412;10.852;2023-05-14T01:02:26;11.80;99.90
41547;DHT22;27271;45.412;10.852;2023-05-14T01:05:59;11.90;99.90
41547;DHT22;27271;45.412;10.852;2023-05-14T01:13:21;11.90;99.90
41547;DHT22;27271;45.412;10.852;2023-05-14T01:16:48;11.80;99.90
41547;DHT22;27271;45.412;10.852;2023-05-14T01:20:11;11.80;99.90
41547;DHT22;27271;45.412;10.852;2023-05-14T01:23:34;11.70;99.90
41547;DHT22;27271;45.412;10.852;2023-05-14T01:27:06;11.70;99.90
41547;DHT22;27271;45.412;10.852;2023-05-14T01:30:36;11.70;99.90
41547;DHT22;27271;45.412;10.852;2023-05-14T01:34:00;11.60;99.90
41547;DHT22;27271;45.412;10.852;2023-05-14T01:37:24;11.70;99.90
41547;DHT22;27271;45.412;10.852;2023-05-14T01:40:48;11.60;99.90
41547;DHT22;27271;45.412;10.852;2023-05-14T01:44:12;11.60;99.90
41547;DHT22;27271;45.412;10.852;2023-05-14T01:47:34;11.70;99.90
41547;DHT22;27271;45.412;10.852;2023-05-14T01:50:56;11.70;99.90
41547;DHT22;27271;45.412;10.852;2023-05-14T01:54:18;11.70;99.90
41547;DHT22;27271;45.412;10.852;2023-05-14T01:57:40;11.70;99.90
41547;DHT22;27271;45.412;10.852;2023-05-14T02:01:02;11.70;99.90
41547;DHT22;27271;45.412;10.852;2023-05-14T02:04:24;11.70;99.90
41547;DHT22;27271;45.412;10.852;2023-05-14T02:07:47;11.60;99.90
41547;DHT22;27271;45.412;10.852;2023-05-14T02:11:09;11.70;99.90
41547;DHT22;27271;45.412;10.852;2023-05-14T02:14:31;11.80;99.90
41547;DHT22;27271;45.412;10.852;2023-05-14T02:17:53;11.80;99.90
41547;DHT22;27271;45.412;10.852;2023-05-14T02:21:15;11.80;99.90
41547;DHT22;27271;45.412;10.852;2023-05-14T02:24:38;11.80;99.90
41547;DHT22;27271;45.412;10.852;2023-05-14T02:28:00;11.90;99.90
41547;DHT22;27271;45.412;10.852;2023-05-14T02:31:22;11.90;99.90
41547;DHT22;27271;45.412;10.852;2023-05-14T02:34:45;11.80;99.90
41547;DHT22;27271;45.412;10.852;2023-05-14T02:38:07;11.80;99.90
41547;DHT22;27271;45.412;10.852;2023-05-14T02:41:29;11.80;99.90
41547;DHT22;27271;45.412;10.852;2023-05-14T02:44:51;11.70;99.90
41547;DHT22;27271;45.412;10.852;2023-05-14T02:48:13;11.70;99.90
41547;DHT22;27271;45.412;10.852;2023-05-14T02:51:35;11.70;99.90
41547;DHT22;27271;45.412;10.852;2023-05-14T02:54:57;11.70;99.90
41547;DHT22;27271;45.412;10.852;2023-05-14T02:58:19;11.70;99.90
41547;DHT22;27271;45.412;10.852;2023-05-14T03:01:48;11.60;99.90
41547;DHT22;27271;45.412;10.852;2023-05-14T03:05:10;11.60;99.90
41547;DHT22;27271;45.412;10.852;2023-05-14T03:08:32;11.50;99.90
41547;DHT22;27271;45.412;10.852;2023-05-14T03:11:55;11.50;99.90
41547;DHT22;27271;45.412;10.852;2023-05-14T03:15:17;11.60;99.90
41547;DHT22;27271;45.412;10.852;2023-05-14T03:18:39;11.50;99.90
41547;DHT22;27271;45.412;10.852;2023-05-14T03:22:03;11.50;99.90
41547;DHT22;27271;45.412;10.852;2023-05-14T03:25:25;11.50;99.90
41547;DHT22;27271;45.412;10.852;2023-05-14T03:28:48;11.50;99.90
41547;DHT22;27271;45.412;10.852;2023-05-14T03:32:10;11.40;99.90
41547;DHT22;27271;45.412;10.852;2023-05-14T03:35:33;11.40;99.90
41547;DHT22;27271;45.412;10.852;2023-05-14T03:38:55;11.50;99.90
41547;DHT22;27271;45.412;10.852;2023-05-14T03:42:17;11.50;99.90
41547;DHT22;27271;45.412;10.852;2023-05-14T03:45:39;11.50;99.90
41547;DHT22;27271;45.412;10.852;2023-05-14T03:49:01;11.60;99.90
41547;DHT22;27271;45.412;10.852;2023-05-14T03:52:24;11.60;99.90
41547;DHT22;27271;45.412;10.852;2023-05-14T03:55:46;11.60;99.90
41547;DHT22;27271;45.412;10.852;2023-05-14T03:59:08;11.60;99.90
41547;DHT22;27271;45.412;10.852;2023-05-14T04:02:30;11.50;99.90
41547;DHT22;27271;45.412;10.852;2023-05-14T04:05:52;11.60;99.90
41547;DHT22;27271;45.412;10.852;2023-05-14T04:09:14;11.60;99.90
41547;DHT22;27271;45.412;10.852;2023-05-14T04:12:37;11.60;99.90
41547;DHT22;27271;45.412;10.852;2023-05-14T04:16:17;11.60;99.90
41547;DHT22;27271;45.412;10.852;2023-05-14T04:19:39;11.60;99.90
41547;DHT22;27271;45.412;10.852;2023-05-14T04:23:01;11.60;99.90
41547;DHT22;27271;45.412;10.852;2023-05-14T04:26:23;11.60;99.90
41547;DHT22;27271;45.412;10.852;2023-05-14T04:29:45;11.60;99.90
41547;DHT22;27271;45.412;10.852;2023-05-14T04:33:07;11.60;99.90
41547;DHT22;27271;45.412;10.852;2023-05-14T04:36:30;11.60;99.90
41547;DHT22;27271;45.412;10.852;2023-05-14T04:39:52;11.60;99.90
41547;DHT22;27271;45.412;10.852;2023-05-14T04:43:14;11.60;99.90
41547;DHT22;27271;45.412;10.852;2023-05-14T04:46:37;11.60;99.90
41547;DHT22;27271;45.412;10.852;2023-05-14T04:49:59;11.60;99.90
41547;DHT22;27271;45.412;10.852;2023-05-14T04:53:21;11.60;99.90
41547;DHT22;27271;45.412;10.852;2023-05-14T04:56:43;11.70;99.90
41547;DHT22;27271;45.412;10.852;2023-05-14T05:00:05;11.70;99.90
41547;DHT22;27271;45.412;10.852;2023-05-14T05:03:28;11.80;99.90
41547;DHT22;27271;45.412;10.852;2023-05-14T05:06:50;11.80;99.90
41547;DHT22;27271;45.412;10.852;2023-05-14T05:10:12;11.80;99.90
41547;DHT22;27271;45.412;10.852;2023-05-14T05:13:34;11.90;99.90
41547;DHT22;27271;45.412;10.852;2023-05-14T05:16:56;12.00;99.90
41547;DHT22;27271;45.412;10.852;2023-05-14T05:20:19;12.00;99.90
41547;DHT22;27271;45.412;10.852;2023-05-14T05:23:42;12.10;99.90
41547;DHT22;27271;45.412;10.852;2023-05-14T05:27:04;12.10;99.90
41547;DHT22;27271;45.412;10.852;2023-05-14T05:30:26;12.20;99.90
41547;DHT22;27271;45.412;10.852;2023-05-14T05:33:49;12.20;99.90
41547;DHT22;27271;45.412;10.852;2023-05-14T05:37:11;12.30;99.90
41547;DHT22;27271;45.412;10.852;2023-05-14T05:40:35;12.30;99.90
41547;DHT22;27271;45.412;10.852;2023-05-14T05:43:57;12.30;99.90
41547;DHT22;27271;45.412;10.852;2023-05-14T05:47:19;12.30;99.90
41547;DHT22;27271;45.412;10.852;2023-05-14T05:50:42;12.20;99.90
41547;DHT22;27271;45.412;10.852;2023-05-14T05:54:05;12.20;99.90
41547;DHT22;27271;45.412;10.852;2023-05-14T05:57:27;12.20;99.90
41547;DHT22;27271;45.412;10.852;2023-05-14T06:00:49;12.20;99.90
41547;DHT22;27271;45.412;10.852;2023-05-14T06:04:12;12.30;99.90
41547;DHT22;27271;45.412;10.852;2023-05-14T06:07:34;12.40;99.90
41547;DHT22;27271;45.412;10.852;2023-05-14T06:10:56;12.60;99.90
41547;DHT22;27271;45.412;10.852;2023-05-14T06:14:19;12.90;99.90
41547;DHT22;27271;45.412;10.852;2023-05-14T06:17:41;13.20;99.90
41547;DHT22;27271;45.412;10.852;2023-05-14T06:21:03;13.30;99.90
41547;DHT22;27271;45.412;10.852;2023-05-14T06:24:25;13.40;99.90
41547;DHT22;27271;45.412;10.852;2023-05-14T06:27:47;13.50;99.90
41547;DHT22;27271;45.412;10.852;2023-05-14T06:31:09;13.50;99.90
41547;DHT22;27271;45.412;10.852;2023-05-14T06:34:31;13.60;99.90
41547;DHT22;27271;45.412;10.852;2023-05-14T06:37:54;13.80;99.90
41547;DHT22;27271;45.412;10.852;2023-05-14T06:41:16;13.90;99.90
41547;DHT22;27271;45.412;10.852;2023-05-14T06:44:38;14.00;60.00
41547;DHT22;27271;45.412;10.852;2023-05-14T06:48:00;14.10;83.30
41547;DHT22;27271;45.412;10.852;2023-05-14T06:51:22;14.20;99.90
41547;DHT22;27271;45.412;10.852;2023-05-14T06:54:44;14.10;1.00
41547;DHT22;27271;45.412;10.852;2023-05-14T06:58:06;14.10;1.00
41547;DHT22;27271;45.412;10.852;2023-05-14T07:01:29;14.20;8.40
41547;DHT22;27271;45.412;10.852;2023-05-14T07:04:51;14.30;25.50
41547;DHT22;27271;45.412;10.852;2023-05-14T07:08:14;14.30;1.00
41547;DHT22;27271;45.412;10.852;2023-05-14T07:11:36;14.20;1.00
41547;DHT22;27271;45.412;10.852;2023-05-14T07:14:58;14.20;99.90
41547;DHT22;27271;45.412;10.852;2023-05-14T07:18:21;14.20;1.00
41547;DHT22;27271;45.412;10.852;2023-05-14T07:21:43;14.20;99.90
41547;DHT22;27271;45.412;10.852;2023-05-14T07:25:06;14.20;1.00
41547;DHT22;27271;45.412;10.852;2023-05-14T07:28:28;14.20;99.90
41547;DHT22;27271;45.412;10.852;2023-05-14T07:31:50;14.10;1.00
41547;DHT22;27271;45.412;10.852;2023-05-14T07:35:13;14.20;99.90
41547;DHT22;27271;45.412;10.852;2023-05-14T07:38:39;14.30;99.90
41547;DHT22;27271;45.412;10.852;2023-05-14T07:42:03;14.30;99.90
41547;DHT22;27271;45.412;10.852;2023-05-14T07:45:26;14.30;99.00
41547;DHT22;27271;45.412;10.852;2023-05-14T07:48:48;14.30;13.20
41547;DHT22;27271;45.412;10.852;2023-05-14T07:52:10;14.30;99.90
41547;DHT22;27271;45.412;10.852;2023-05-14T07:55:32;14.40;99.90
41547;DHT22;27271;45.412;10.852;2023-05-14T07:58:54;14.40;1.00
41547;DHT22;27271;45.412;10.852;2023-05-14T08:02:16;14.40;99.90
41547;DHT22;27271;45.412;10.852;2023-05-14T08:05:38;14.40;99.90
41547;DHT22;27271;45.412;10.852;2023-05-14T08:09:00;14.40;99.90
41547;DHT22;27271;45.412;10.852;2023-05-14T08:12:22;14.40;99.90
41547;DHT22;27271;45.412;10.852;2023-05-14T08:15:44;14.40;99.90
41547;DHT22;27271;45.412;10.852;2023-05-14T08:19:06;14.40;99.90
41547;DHT22;27271;45.412;10.852;2023-05-14T08:22:29;14.40;99.90
41547;DHT22;27271;45.412;10.852;2023-05-14T08:25:51;14.50;99.90
41547;DHT22;27271;45.412;10.852;2023-05-14T08:29:13;14.50;99.90
41547;DHT22;27271;45.412;10.852;2023-05-14T08:32:37;14.70;99.90
41547;DHT22;27271;45.412;10.852;2023-05-14T08:36:00;14.70;99.90
41547;DHT22;27271;45.412;10.852;2023-05-14T08:39:22;14.80;1.00
41547;DHT22;27271;45.412;10.852;2023-05-14T08:42:44;14.80;99.90
41547;DHT22;27271;45.412;10.852;2023-05-14T08:46:07;14.80;1.00
41547;DHT22;27271;45.412;10.852;2023-05-14T08:49:39;14.80;49.30
41547;DHT22;27271;45.412;10.852;2023-05-14T08:53:01;14.70;1.00
41547;DHT22;27271;45.412;10.852;2023-05-14T08:56:24;14.60;99.90
41547;DHT22;27271;45.412;10.852;2023-05-14T08:59:47;14.50;99.90
41547;DHT22;27271;45.412;10.852;2023-05-14T09:03:09;14.40;99.90
41547;DHT22;27271;45.412;10.852;2023-05-14T09:06:34;14.30;99.90
41547;DHT22;27271;45.412;10.852;2023-05-14T09:09:56;14.20;1.00
41547;DHT22;27271;45.412;10.852;2023-05-14T09:13:18;14.00;99.90
41547;DHT22;27271;45.412;10.852;2023-05-14T09:16:43;13.90;1.00
41547;DHT22;27271;45.412;10.852;2023-05-14T09:20:07;13.80;10.00
41547;DHT22;27271;45.412;10.852;2023-05-14T09:23:32;13.60;99.90
41547;DHT22;27271;45.412;10.852;2023-05-14T09:26:56;13.50;99.90
41547;DHT22;27271;45.412;10.852;2023-05-14T09:30:18;13.40;99.90
41547;DHT22;27271;45.412;10.852;2023-05-14T09:33:40;13.30;99.90
41547;DHT22;27271;45.412;10.852;2023-05-14T09:37:04;13.20;99.90
41547;DHT22;27271;45.412;10.852;2023-05-14T09:40:26;13.20;99.90
41547;DHT22;27271;45.412;10.852;2023-05-14T09:43:50;13.20;99.90
41547;DHT22;27271;45.412;10.852;2023-05-14T09:47:14;13.20;99.90
41547;DHT22;27271;45.412;10.852;2023-05-14T09:50:44;13.20;99.90
41547;DHT22;27271;45.412;10.852;2023-05-14T09:54:07;13.30;99.90
41547;DHT22;27271;45.412;10.852;2023-05-14T09:57:29;13.30;99.90
41547;DHT22;27271;45.412;10.852;2023-05-14T10:00:52;13.40;99.90
41547;DHT22;27271;45.412;10.852;2023-05-14T10:04:15;13.40;99.90
41547;DHT22;27271;45.412;10.852;2023-05-14T10:07:41;13.50;99.90
41547;DHT22;27271;45.412;10.852;2023-05-14T10:11:09;13.50;99.90
41547;DHT22;27271;45.412;10.852;2023-05-14T10:14:40;13.60;99.90
41547;DHT22;27271;45.412;10.852;2023-05-14T10:18:11;13.70;99.90
41547;DHT22;27271;45.412;10.852;2023-05-14T10:21:39;13.80;99.90
41547;DHT22;27271;45.412;10.852;2023-05-14T10:25:03;13.80;99.90
41547;DHT22;27271;45.412;10.852;2023-05-14T10:28:27;13.90;99.90
41547;DHT22;27271;45.412;10.852;2023-05-14T10:35:18;13.90;99.90
41547;DHT22;27271;45.412;10.852;2023-05-14T10:38:54;13.90;99.90
41547;DHT22;27271;45.412;10.852;2023-05-14T10:45:43;13.70;99.90
41547;DHT22;27271;45.412;10.852;2023-05-14T10:49:05;13.70;95.00
41547;DHT22;27271;45.412;10.852;2023-05-14T10:52:31;13.70;99.90
41547;DHT22;27271;45.412;10.852;2023-05-14T10:55:55;13.80;85.50
41547;DHT22;27271;45.412;10.852;2023-05-14T10:59:17;13.80;1.00
41547;DHT22;27271;45.412;10.852;2023-05-14T11:02:41;13.80;29.70
41547;DHT22;27271;45.412;10.852;2023-05-14T11:06:05;14.00;70.40
41547;DHT22;27271;45.412;10.852;2023-05-14T11:09:27;14.10;1.00
41547;DHT22;27271;45.412;10.852;2023-05-14T11:12:50;14.20;1.00
41547;DHT22;27271;45.412;10.852;2023-05-14T11:16:13;14.30;1.00
41547;DHT22;27271;45.412;10.852;2023-05-14T11:19:44;14.50;1.00
41547;DHT22;27271;45.412;10.852;2023-05-14T11:23:08;14.60;1.00
41547;DHT22;27271;45.412;10.852;2023-05-14T11:26:31;14.80;1.00
41547;DHT22;27271;45.412;10.852;2023-05-14T11:29:53;15.00;1.00
41547;DHT22;27271;45.412;10.852;2023-05-14T11:33:17;15.10;99.90
41547;DHT22;27271;45.412;10.852;2023-05-14T11:36:40;15.20;99.90
41547;DHT22;27271;45.412;10.852;2023-05-14T11:40:07;15.20;99.90
41547;DHT22;27271;45.412;10.852;2023-05-14T11:43:30;15.30;99.90
41547;DHT22;27271;45.412;10.852;2023-05-14T11:46:56;15.30;99.90
41547;DHT22;27271;45.412;10.852;2023-05-14T11:50:20;15.40;75.10
41547;DHT22;27271;45.412;10.852;2023-05-14T11:53:44;15.40;1.00
41547;DHT22;27271;45.412;10.852;2023-05-14T11:57:24;15.50;99.90
41547;DHT22;27271;45.412;10.852;2023-05-14T12:00:50;15.70;7.10
41547;DHT22;27271;45.412;10.852;2023-05-14T12:04:12;16.00;99.90
41547;DHT22;27271;45.412;10.852;2023-05-14T12:07:35;16.20;1.00
41547;DHT22;27271;45.412;10.852;2023-05-14T12:10:58;16.50;99.90
41547;DHT22;27271;45.412;10.852;2023-05-14T12:14:22;17.00;60.60
41547;DHT22;27271;45.412;10.852;2023-05-14T12:17:50;17.60;1.00
41547;DHT22;27271;45.412;10.852;2023-05-14T12:21:13;17.70;28.90
41547;DHT22;27271;45.412;10.852;2023-05-14T12:24:57;17.50;80.90
41547;DHT22;27271;45.412;10.852;2023-05-14T12:28:38;17.30;1.00
41547;DHT22;27271;45.412;10.852;2023-05-14T12:32:08;16.90;88.10
41547;DHT22;27271;45.412;10.852;2023-05-14T12:35:35;17.10;99.90
41547;DHT22;27271;45.412;10.852;2023-05-14T12:38:59;17.60;99.90
41547;DHT22;27271;45.412;10.852;2023-05-14T12:42:35;17.70;99.90
41547;DHT22;27271;45.412;10.852;2023-05-14T12:45:59;17.80;89.50
41547;DHT22;27271;45.412;10.852;2023-05-14T12:49:21;17.90;99.90
41547;DHT22;27271;45.412;10.852;2023-05-14T12:52:43;17.80;92.00
41547;DHT22;27271;45.412;10.852;2023-05-14T12:56:07;17.90;99.90
41547;DHT22;27271;45.412;10.852;2023-05-14T12:59:29;17.50;82.70
41547;DHT22;27271;45.412;10.852;2023-05-14T13:03:06;17.30;16.00
41547;DHT22;27271;45.412;10.852;2023-05-14T13:06:37;16.80;82.10
41547;DHT22;27271;45.412;10.852;2023-05-14T13:10:03;16.50;16.20
41547;DHT22;27271;45.412;10.852;2023-05-14T13:13:40;16.00;99.90
41547;DHT22;27271;45.412;10.852;2023-05-14T13:17:06;15.70;99.90
41547;DHT22;27271;45.412;10.852;2023-05-14T13:20:30;15.20;1.00
41547;DHT22;27271;45.412;10.852;2023-05-14T13:23:52;15.00;99.90
41547;DHT22;27271;45.412;10.852;2023-05-14T13:27:14;14.80;99.90
41547;DHT22;27271;45.412;10.852;2023-05-14T13:30:36;14.60;99.90
41547;DHT22;27271;45.412;10.852;2023-05-14T13:33:58;14.50;1.00
41547;DHT22;27271;45.412;10.852;2023-05-14T13:37:20;14.50;1.00
41547;DHT22;27271;45.412;10.852;2023-05-14T13:40:51;14.50;99.90
41547;DHT22;27271;45.412;10.852;2023-05-14T13:44:21;14.60;99.90
41547;DHT22;27271;45.412;10.852;2023-05-14T13:47:44;14.70;1.00
41547;DHT22;27271;45.412;10.852;2023-05-14T13:51:06;15.10;99.90
41547;DHT22;27271;45.412;10.852;2023-05-14T13:54:28;15.10;99.90
41547;DHT22;27271;45.412;10.852;2023-05-14T13:57:50;15.10;99.90
41547;DHT22;27271;45.412;10.852;2023-05-14T14:01:12;15.30;99.90
41547;DHT22;27271;45.412;10.852;2023-05-14T14:04:34;15.60;1.00
41547;DHT22;27271;45.412;10.852;2023-05-14T14:07:56;15.90;1.00
41547;DHT22;27271;45.412;10.852;2023-05-14T14:11:39;16.10;99.90
41547;DHT22;27271;45.412;10.852;2023-05-14T14:15:01;16.30;99.90
41547;DHT22;27271;45.412;10.852;2023-05-14T14:18:25;16.40;99.90
41547;DHT22;27271;45.412;10.852;2023-05-14T14:21:47;16.60;1.00
41547;DHT22;27271;45.412;10.852;2023-05-14T14:25:14;16.80;1.00
41547;DHT22;27271;45.412;10.852;2023-05-14T14:28:36;16.90;99.90
41547;DHT22;27271;45.412;10.852;2023-05-14T14:31:58;16.80;99.90
41547;DHT22;27271;45.412;10.852;2023-05-14T14:35:20;16.50;1.00
41547;DHT22;27271;45.412;10.852;2023-05-14T14:38:42;16.40;99.90
41547;DHT22;27271;45.412;10.852;2023-05-14T14:42:05;16.30;99.90
41547;DHT22;27271;45.412;10.852;2023-05-14T14:45:28;16.20;1.50
41547;DHT22;27271;45.412;10.852;2023-05-14T14:48:50;16.20;99.90
41547;DHT22;27271;45.412;10.852;2023-05-14T14:52:12;16.30;99.90
41547;DHT22;27271;45.412;10.852;2023-05-14T14:55:34;16.30;99.90
41547;DHT22;27271;45.412;10.852;2023-05-14T14:58:56;16.40;99.90
41547;DHT22;27271;45.412;10.852;2023-05-14T15:02:18;16.90;71.50
41547;DHT22;27271;45.412;10.852;2023-05-14T15:05:41;17.30;99.90
41547;DHT22;27271;45.412;10.852;2023-05-14T15:09:03;17.30;99.90
41547;DHT22;27271;45.412;10.852;2023-05-14T15:12:25;17.30;1.00
41547;DHT22;27271;45.412;10.852;2023-05-14T15:15:50;17.40;99.90
41547;DHT22;27271;45.412;10.852;2023-05-14T15:19:13;17.00;1.00
41547;DHT22;27271;45.412;10.852;2023-05-14T15:22:35;16.80;1.00
41547;DHT22;27271;45.412;10.852;2023-05-14T15:25:57;16.70;1.00
41547;DHT22;27271;45.412;10.852;2023-05-14T15:29:19;16.60;99.90
41547;DHT22;27271;45.412;10.852;2023-05-14T15:32:41;16.70;99.90
41547;DHT22;27271;45.412;10.852;2023-05-14T15:36:04;16.60;99.90
41547;DHT22;27271;45.412;10.852;2023-05-14T15:39:27;16.60;99.90
41547;DHT22;27271;45.412;10.852;2023-05-14T15:42:50;16.50;99.90
41547;DHT22;27271;45.412;10.852;2023-05-14T15:46:13;16.40;99.90
41547;DHT22;27271;45.412;10.852;2023-05-14T15:49:35;16.30;99.90
41547;DHT22;27271;45.412;10.852;2023-05-14T15:52:57;16.40;99.90
41547;DHT22;27271;45.412;10.852;2023-05-14T15:56:21;16.20;99.90
41547;DHT22;27271;45.412;10.852;2023-05-14T15:59:43;16.10;1.00
41547;DHT22;27271;45.412;10.852;2023-05-14T16:03:06;16.00;99.90
41547;DHT22;27271;45.412;10.852;2023-05-14T16:06:28;15.80;99.90
41547;DHT22;27271;45.412;10.852;2023-05-14T16:09:50;15.60;1.00
41547;DHT22;27271;45.412;10.852;2023-05-14T16:13:12;15.50;11.00
41547;DHT22;27271;45.412;10.852;2023-05-14T16:16:35;15.30;99.90
41547;DHT22;27271;45.412;10.852;2023-05-14T16:19:59;15.20;99.90
41547;DHT22;27271;45.412;10.852;2023-05-14T16:23:21;15.00;99.90
41547;DHT22;27271;45.412;10.852;2023-05-14T16:26:43;14.90;1.00
41547;DHT22;27271;45.412;10.852;2023-05-14T16:30:06;14.80;99.90
41547;DHT22;27271;45.412;10.852;2023-05-14T16:33:29;14.70;99.90
41547;DHT22;27271;45.412;10.852;2023-05-14T16:36:51;14.60;99.90
41547;DHT22;27271;45.412;10.852;2023-05-14T16:40:13;14.50;99.90
41547;DHT22;27271;45.412;10.852;2023-05-14T16:43:36;14.50;1.00
41547;DHT22;27271;45.412;10.852;2023-05-14T16:46:58;14.40;99.90
41547;DHT22;27271;45.412;10.852;2023-05-14T16:50:21;14.40;99.90
41547;DHT22;27271;45.412;10.852;2023-05-14T16:53:42;14.20;1.00
41547;DHT22;27271;45.412;10.852;2023-05-14T16:57:04;14.10;1.00
41547;DHT22;27271;45.412;10.852;2023-05-14T17:00:26;14.00;1.00
41547;DHT22;27271;45.412;10.852;2023-05-14T17:03:48;14.00;1.00
41547;DHT22;27271;45.412;10.852;2023-05-14T17:07:11;14.00;1.00
41547;DHT22;27271;45.412;10.852;2023-05-14T17:10:33;13.90;39.80
41547;DHT22;27271;45.412;10.852;2023-05-14T17:13:55;13.90;1.00
41547;DHT22;27271;45.412;10.852;2023-05-14T17:17:17;13.80;32.40
41547;DHT22;27271;45.412;10.852;2023-05-14T17:20:39;13.80;91.10
41547;DHT22;27271;45.412;10.852;2023-05-14T17:24:01;13.90;99.90
41547;DHT22;27271;45.412;10.852;2023-05-14T17:27:23;13.90;99.90
41547;DHT22;27271;45.412;10.852;2023-05-14T17:30:45;13.90;99.90
41547;DHT22;27271;45.412;10.852;2023-05-14T17:34:07;13.80;99.90
41547;DHT22;27271;45.412;10.852;2023-05-14T17:37:29;13.80;99.90
41547;DHT22;27271;45.412;10.852;2023-05-14T17:40:51;13.80;99.90
41547;DHT22;27271;45.412;10.852;2023-05-14T17:44:13;13.70;99.90
41547;DHT22;27271;45.412;10.852;2023-05-14T17:47:35;13.60;99.90
41547;DHT22;27271;45.412;10.852;2023-05-14T17:50:57;13.50;99.30
41547;DHT22;27271;45.412;10.852;2023-05-14T17:54:19;13.30;99.90
41547;DHT22;27271;45.412;10.852;2023-05-14T17:57:42;13.30;99.90
41547;DHT22;27271;45.412;10.852;2023-05-14T18:01:04;13.40;99.90
41547;DHT22;27271;45.412;10.852;2023-05-14T18:04:27;13.30;99.90
41547;DHT22;27271;45.412;10.852;2023-05-14T18:07:49;13.30;99.90
41547;DHT22;27271;45.412;10.852;2023-05-14T18:11:11;13.30;99.90
41547;DHT22;27271;45.412;10.852;2023-05-14T18:14:33;13.20;99.90
41547;DHT22;27271;45.412;10.852;2023-05-14T18:17:56;13.10;99.90
41547;DHT22;27271;45.412;10.852;2023-05-14T18:21:18;13.10;99.90
41547;DHT22;27271;45.412;10.852;2023-05-14T18:24:41;13.00;99.90
41547;DHT22;27271;45.412;10.852;2023-05-14T18:28:05;13.00;99.90
41547;DHT22;27271;45.412;10.852;2023-05-14T18:31:27;13.00;99.90
41547;DHT22;27271;45.412;10.852;2023-05-14T18:34:49;12.90;99.90
41547;DHT22;27271;45.412;10.852;2023-05-14T18:38:11;12.90;99.90
41547;DHT22;27271;45.412;10.852;2023-05-14T18:41:34;12.80;99.90
41547;DHT22;27271;45.412;10.852;2023-05-14T18:44:56;12.80;99.90
41547;DHT22;27271;45.412;10.852;2023-05-14T18:48:18;12.80;99.90
41547;DHT22;27271;45.412;10.852;2023-05-14T18:51:49;12.70;99.90
41547;DHT22;27271;45.412;10.852;2023-05-14T18:55:53;12.70;99.90
41547;DHT22;27271;45.412;10.852;2023-05-14T18:59:20;12.70;99.90
41547;DHT22;27271;45.412;10.852;2023-05-14T19:02:42;12.70;99.90
41547;DHT22;27271;45.412;10.852;2023-05-14T19:06:05;12.70;99.90
41547;DHT22;27271;45.412;10.852;2023-05-14T19:09:27;12.60;99.90
41547;DHT22;27271;45.412;10.852;2023-05-14T19:12:49;12.60;99.90
41547;DHT22;27271;45.412;10.852;2023-05-14T19:16:12;12.60;99.90
41547;DHT22;27271;45.412;10.852;2023-05-14T19:19:34;12.60;99.90
41547;DHT22;27271;45.412;10.852;2023-05-14T19:22:57;12.60;99.90
41547;DHT22;27271;45.412;10.852;2023-05-14T19:26:20;12.50;99.90
41547;DHT22;27271;45.412;10.852;2023-05-14T19:29:43;12.50;99.90
41547;DHT22;27271;45.412;10.852;2023-05-14T19:33:23;12.40;99.90
41547;DHT22;27271;45.412;10.852;2023-05-14T19:36:53;12.40;99.90
41547;DHT22;27271;45.412;10.852;2023-05-14T19:40:16;12.40;99.90
41547;DHT22;27271;45.412;10.852;2023-05-14T19:43:42;12.40;99.90
41547;DHT22;27271;45.412;10.852;2023-05-14T19:47:08;12.40;99.90
41547;DHT22;27271;45.412;10.852;2023-05-14T19:51:06;12.40;99.90
41547;DHT22;27271;45.412;10.852;2023-05-14T19:54:29;12.40;99.90
41547;DHT22;27271;45.412;10.852;2023-05-14T19:57:53;12.40;99.90
41547;DHT22;27271;45.412;10.852;2023-05-14T20:01:18;12.30;99.90
41547;DHT22;27271;45.412;10.852;2023-05-14T20:04:45;12.30;99.90
41547;DHT22;27271;45.412;10.852;2023-05-14T20:08:08;12.30;99.90
41547;DHT22;27271;45.412;10.852;2023-05-14T20:11:30;12.30;99.90
41547;DHT22;27271;45.412;10.852;2023-05-14T20:14:56;12.30;99.90
41547;DHT22;27271;45.412;10.852;2023-05-14T20:18:19;12.30;99.90
41547;DHT22;27271;45.412;10.852;2023-05-14T20:21:42;12.30;99.90
41547;DHT22;27271;45.412;10.852;2023-05-14T20:25:10;12.30;99.90
41547;DHT22;27271;45.412;10.852;2023-05-14T20:28:37;12.30;99.90
41547;DHT22;27271;45.412;10.852;2023-05-14T20:31:59;12.30;99.90
41547;DHT22;27271;45.412;10.852;2023-05-14T20:35:24;12.30;99.90
41547;DHT22;27271;45.412;10.852;2023-05-14T20:38:47;12.30;99.90
41547;DHT22;27271;45.412;10.852;2023-05-14T20:42:09;12.20;99.90
41547;DHT22;27271;45.412;10.852;2023-05-14T20:45:31;12.20;99.90
41547;DHT22;27271;45.412;10.852;2023-05-14T20:48:56;12.20;99.90
41547;DHT22;27271;45.412;10.852;2023-05-14T20:52:18;12.10;99.90
41547;DHT22;27271;45.412;10.852;2023-05-14T20:55:40;12.10;99.90
41547;DHT22;27271;45.412;10.852;2023-05-14T20:59:02;12.00;99.90
41547;DHT22;27271;45.412;10.852;2023-05-14T21:02:24;12.00;99.90
41547;DHT22;27271;45.412;10.852;2023-05-14T21:05:46;12.00;99.90
41547;DHT22;27271;45.412;10.852;2023-05-14T21:09:08;12.00;99.90
41547;DHT22;27271;45.412;10.852;2023-05-14T21:12:31;12.00;99.90
41547;DHT22;27271;45.412;10.852;2023-05-14T21:15:53;12.00;99.90
41547;DHT22;27271;45.412;10.852;2023-05-14T21:19:15;11.90;99.90